sensor_id;sensor_type;location;lat;lon;timestamp;pressure;altitude;pressure_sealevel;temperature
69785;BMP280;14177;51.520;6.764;2024-01-10T00:00:42;102860.75;;;-4.06
69785;BMP280;14177;51.520;6.764;2024-01-10T00:03:09;102855.72;;;-4.04
69785;BMP280;14177;51.520;6.764;2024-01-10T00:05:36;102856.69;;;-4.02
69785;BMP280;14177;51.520;6.764;2024-01-10T00:08:04;102858.53;;;-4.00
69785;BMP280;14177;51.520;6.764;2024-01-10T00:10:31;102852.78;;;-3.97
69785;BMP280;14177;51.520;6.764;2024-01-10T00:12:58;102849.28;;;-3.99
69785;BMP280;14177;51.520;6.764;2024-01-10T00:15:25;102850.91;;;-4.00
69785;BMP280;14177;51.520;6.764;2024-01-10T00:17:52;102842.25;;;-4.03
69785;BMP280;14177;51.520;6.764;2024-01-10T00:20:19;102855.91;;;-4.01
69785;BMP280;14177;51.520;6.764;2024-01-10T00:22:46;102858.47;;;-4.01
69785;BMP280;14177;51.520;6.764;2024-01-10T00:25:13;102851.44;;;-4.05
69785;BMP280;14177;51.520;6.764;2024-01-10T00:27:40;102855.47;;;-4.09
69785;BMP280;14177;51.520;6.764;2024-01-10T00:30:08;102854.22;;;-4.15
69785;BMP280;14177;51.520;6.764;2024-01-10T00:32:35;102853.16;;;-4.19
69785;BMP280;14177;51.520;6.764;2024-01-10T00:35:03;102845.44;;;-4.20
69785;BMP280;14177;51.520;6.764;2024-01-10T00:37:30;102844.59;;;-4.21
69785;BMP280;14177;51.520;6.764;2024-01-10T00:39:57;102842.13;;;-4.19
69785;BMP280;14177;51.520;6.764;2024-01-10T00:42:24;102850.53;;;-4.20
69785;BMP280;14177;51.520;6.764;2024-01-10T00:44:51;102839.50;;;-4.21
69785;BMP280;14177;51.520;6.764;2024-01-10T00:47:17;102846.22;;;-4.21
69785;BMP280;14177;51.520;6.764;2024-01-10T00:49:45;102844.59;;;-4.21
69785;BMP280;14177;51.520;6.764;2024-01-10T00:52:12;102837.81;;;-4.20
69785;BMP280;14177;51.520;6.764;2024-01-10T00:54:39;102833.53;;;-4.21
69785;BMP280;14177;51.520;6.764;2024-01-10T00:57:06;102831.19;;;-4.18
69785;BMP280;14177;51.520;6.764;2024-01-10T00:59:33;102827.66;;;-4.20
69785;BMP280;14177;51.520;6.764;2024-01-10T01:02:00;102840.28;;;-4.22
69785;BMP280;14177;51.520;6.764;2024-01-10T01:04:27;102829.84;;;-4.26
69785;BMP280;14177;51.520;6.764;2024-01-10T01:06:54;102829.84;;;-4.26
69785;BMP280;14177;51.520;6.764;2024-01-10T01:09:21;102829.84;;;-4.26
69785;BMP280;14177;51.520;6.764;2024-01-10T01:11:48;102827.22;;;-4.28
69785;BMP280;14177;51.520;6.764;2024-01-10T01:14:15;102826.44;;;-4.27
69785;BMP280;14177;51.520;6.764;2024-01-10T01:16:42;102826.44;;;-4.27
69785;BMP280;14177;51.520;6.764;2024-01-10T01:19:09;102824.56;;;-4.29
69785;BMP280;14177;51.520;6.764;2024-01-10T01:21:36;102823.59;;;-4.31
69785;BMP280;14177;51.520;6.764;2024-01-10T01:24:03;102815.81;;;-4.34
69785;BMP280;14177;51.520;6.764;2024-01-10T01:26:30;102820.72;;;-4.37
69785;BMP280;14177;51.520;6.764;2024-01-10T01:28:57;102818.97;;;-4.38
69785;BMP280;14177;51.520;6.764;2024-01-10T01:31:24;102827.38;;;-4.39
69785;BMP280;14177;51.520;6.764;2024-01-10T01:33:51;102818.00;;;-4.40
69785;BMP280;14177;51.520;6.764;2024-01-10T01:36:18;102813.72;;;-4.41
69785;BMP280;14177;51.520;6.764;2024-01-10T01:38:45;102816.84;;;-4.45
69785;BMP280;14177;51.520;6.764;2024-01-10T01:41:12;102824.28;;;-4.48
69785;BMP280;14177;51.520;6.764;2024-01-10T01:43:42;102821.56;;;-4.51
69785;BMP280;14177;51.520;6.764;2024-01-10T01:46:10;102813.03;;;-4.52
69785;BMP280;14177;51.520;6.764;2024-01-10T01:48:38;102814.72;;;-4.52
69785;BMP280;14177;51.520;6.764;2024-01-10T01:51:07;102796.97;;;-4.52
69785;BMP280;14177;51.520;6.764;2024-01-10T01:53:35;102802.91;;;-4.52
69785;BMP280;14177;51.520;6.764;2024-01-10T01:56:07;102798.41;;;-4.56
69785;BMP280;14177;51.520;6.764;2024-01-10T01:58:36;102802.81;;;-4.53
69785;BMP280;14177;51.520;6.764;2024-01-10T02:01:04;102808.69;;;-4.54
69785;BMP280;14177;51.520;6.764;2024-01-10T02:03:32;102801.75;;;-4.57
69785;BMP280;14177;51.520;6.764;2024-01-10T02:06:00;102809.28;;;-4.58
69785;BMP280;14177;51.520;6.764;2024-01-10T02:08:35;102797.38;;;-4.59
69785;BMP280;14177;51.520;6.764;2024-01-10T02:11:03;102800.50;;;-4.63
69785;BMP280;14177;51.520;6.764;2024-01-10T02:13:34;102803.63;;;-4.67
69785;BMP280;14177;51.520;6.764;2024-01-10T02:16:01;102796.69;;;-4.70
69785;BMP280;14177;51.520;6.764;2024-01-10T02:18:30;102788.22;;;-4.70
69785;BMP280;14177;51.520;6.764;2024-01-10T02:20:58;102793.09;;;-4.73
69785;BMP280;14177;51.520;6.764;2024-01-10T02:23:25;102797.13;;;-4.77
69785;BMP280;14177;51.520;6.764;2024-01-10T02:25:52;102791.88;;;-4.79
69785;BMP280;14177;51.520;6.764;2024-01-10T02:28:19;102790.97;;;-4.80
69785;BMP280;14177;51.520;6.764;2024-01-10T02:30:46;102795.84;;;-4.83
69785;BMP280;14177;51.520;6.764;2024-01-10T02:33:14;102792.34;;;-4.85
69785;BMP280;14177;51.520;6.764;2024-01-10T02:35:41;102783.69;;;-4.88
69785;BMP280;14177;51.520;6.764;2024-01-10T02:38:08;102781.81;;;-4.91
69785;BMP280;14177;51.520;6.764;2024-01-10T02:40:35;102787.69;;;-4.92
69785;BMP280;14177;51.520;6.764;2024-01-10T02:43:02;102790.03;;;-4.95
69785;BMP280;14177;51.520;6.764;2024-01-10T02:45:30;102778.13;;;-4.96
69785;BMP280;14177;51.520;6.764;2024-01-10T02:47:57;102783.78;;;-5.00
69785;BMP280;14177;51.520;6.764;2024-01-10T02:50:24;102782.81;;;-5.02
69785;BMP280;14177;51.520;6.764;2024-01-10T02:52:51;102785.16;;;-5.05
69785;BMP280;14177;51.520;6.764;2024-01-10T02:55:18;102783.50;;;-5.04
69785;BMP280;14177;51.520;6.764;2024-01-10T02:57:45;102780.88;;;-5.06
69785;BMP280;14177;51.520;6.764;2024-01-10T03:00:13;102777.56;;;-5.05
69785;BMP280;14177;51.520;6.764;2024-01-10T03:02:40;102761.22;;;-5.10
69785;BMP280;14177;51.520;6.764;2024-01-10T03:05:07;102771.50;;;-5.07
69785;BMP280;14177;51.520;6.764;2024-01-10T03:07:35;102766.34;;;-5.08
69785;BMP280;14177;51.520;6.764;2024-01-10T03:10:02;102764.69;;;-5.08
69785;BMP280;14177;51.520;6.764;2024-01-10T03:12:30;102759.72;;;-5.06
69785;BMP280;14177;51.520;6.764;2024-01-10T03:14:58;102764.81;;;-5.06
69785;BMP280;14177;51.520;6.764;2024-01-10T03:17:25;102758.16;;;-5.04
69785;BMP280;14177;51.520;6.764;2024-01-10T03:19:52;102759.22;;;-5.01
69785;BMP280;14177;51.520;6.764;2024-01-10T03:22:19;102754.06;;;-5.02
69785;BMP280;14177;51.520;6.764;2024-01-10T03:24:46;102758.16;;;-5.04
69785;BMP280;14177;51.520;6.764;2024-01-10T03:27:13;102753.88;;;-5.05
69785;BMP280;14177;51.520;6.764;2024-01-10T03:29:40;102746.09;;;-5.08
69785;BMP280;14177;51.520;6.764;2024-01-10T03:32:07;102746.94;;;-5.08
69785;BMP280;14177;51.520;6.764;2024-01-10T03:34:34;102744.53;;;-5.06
69785;BMP280;14177;51.520;6.764;2024-01-10T03:37:02;102743.63;;;-5.07
69785;BMP280;14177;51.520;6.764;2024-01-10T03:39:29;102753.75;;;-5.07
69785;BMP280;14177;51.520;6.764;2024-01-10T03:41:56;102751.84;;;-5.11
69785;BMP280;14177;51.520;6.764;2024-01-10T03:44:23;102758.50;;;-5.13
69785;BMP280;14177;51.520;6.764;2024-01-10T03:46:50;102756.81;;;-5.12
69785;BMP280;14177;51.520;6.764;2024-01-10T03:49:17;102757.41;;;-5.16
69785;BMP280;14177;51.520;6.764;2024-01-10T03:51:44;102755.56;;;-5.19
69785;BMP280;14177;51.520;6.764;2024-01-10T03:54:12;102747.97;;;-5.19
69785;BMP280;14177;51.520;6.764;2024-01-10T03:56:39;102752.91;;;-5.20
69785;BMP280;14177;51.520;6.764;2024-01-10T03:59:05;102749.53;;;-5.21
69785;BMP280;14177;51.520;6.764;2024-01-10T04:01:33;102756.16;;;-5.23
69785;BMP280;14177;51.520;6.764;2024-01-10T04:04:00;102752.66;;;-5.25
69785;BMP280;14177;51.520;6.764;2024-01-10T04:06:27;102744.06;;;-5.27
69785;BMP280;14177;51.520;6.764;2024-01-10T04:08:55;102745.44;;;-5.32
69785;BMP280;14177;51.520;6.764;2024-01-10T04:11:22;102744.47;;;-5.34
69785;BMP280;14177;51.520;6.764;2024-01-10T04:13:49;102738.41;;;-5.36
69785;BMP280;14177;51.520;6.764;2024-01-10T04:16:16;102736.56;;;-5.38
69785;BMP280;14177;51.520;6.764;2024-01-10T04:18:43;102732.25;;;-5.39
69785;BMP280;14177;51.520;6.764;2024-01-10T04:21:10;102737.25;;;-5.41
69785;BMP280;14177;51.520;6.764;2024-01-10T04:23:38;102738.03;;;-5.42
69785;BMP280;14177;51.520;6.764;2024-01-10T04:26:05;102748.16;;;-5.42
69785;BMP280;14177;51.520;6.764;2024-01-10T04:28:32;102758.31;;;-5.42
69785;BMP280;14177;51.520;6.764;2024-01-10T04:30:59;102738.81;;;-5.43
69785;BMP280;14177;51.520;6.764;2024-01-10T04:33:27;102739.19;;;-5.37
69785;BMP280;14177;51.520;6.764;2024-01-10T04:35:54;102740.19;;;-5.35
69785;BMP280;14177;51.520;6.764;2024-01-10T04:38:21;102740.19;;;-5.35
69785;BMP280;14177;51.520;6.764;2024-01-10T04:40:48;102738.88;;;-5.28
69785;BMP280;14177;51.520;6.764;2024-01-10T04:43:15;102727.97;;;-5.27
69785;BMP280;14177;51.520;6.764;2024-01-10T04:45:42;102729.06;;;-5.24
69785;BMP280;14177;51.520;6.764;2024-01-10T04:48:09;102728.47;;;-5.20
69785;BMP280;14177;51.520;6.764;2024-01-10T04:50:36;102724.25;;;-5.19
69785;BMP280;14177;51.520;6.764;2024-01-10T04:53:04;102720.88;;;-5.20
69785;BMP280;14177;51.520;6.764;2024-01-10T04:55:31;102719.31;;;-5.18
69785;BMP280;14177;51.520;6.764;2024-01-10T04:57:57;102720.88;;;-5.20
69785;BMP280;14177;51.520;6.764;2024-01-10T05:00:27;102723.47;;;-5.18
69785;BMP280;14177;51.520;6.764;2024-01-10T05:02:54;102715.69;;;-5.21
69785;BMP280;14177;51.520;6.764;2024-01-10T05:05:21;102706.31;;;-5.22
69785;BMP280;14177;51.520;6.764;2024-01-10T05:07:51;102714.22;;;-5.18
69785;BMP280;14177;51.520;6.764;2024-01-10T05:10:18;102718.00;;;-5.11
69785;BMP280;14177;51.520;6.764;2024-01-10T05:12:45;102724.13;;;-5.08
69785;BMP280;14177;51.520;6.764;2024-01-10T05:15:12;102716.63;;;-5.06
69785;BMP280;14177;51.520;6.764;2024-01-10T05:17:39;102720.03;;;-5.06
69785;BMP280;14177;51.520;6.764;2024-01-10T05:20:07;102724.25;;;-5.06
69785;BMP280;14177;51.520;6.764;2024-01-10T05:22:35;102731.72;;;-5.08
69785;BMP280;14177;51.520;6.764;2024-01-10T05:25:03;102732.69;;;-5.06
69785;BMP280;14177;51.520;6.764;2024-01-10T05:27:31;102721.59;;;-5.08
69785;BMP280;14177;51.520;6.764;2024-01-10T05:29:58;102714.59;;;-5.12
69785;BMP280;14177;51.520;6.764;2024-01-10T05:32:26;102713.72;;;-5.12
69785;BMP280;14177;51.520;6.764;2024-01-10T05:34:54;102714.59;;;-5.12
69785;BMP280;14177;51.520;6.764;2024-01-10T05:37:22;102717.81;;;-5.14
69785;BMP280;14177;51.520;6.764;2024-01-10T05:39:49;102722.22;;;-5.12
69785;BMP280;14177;51.520;6.764;2024-01-10T05:42:16;102719.69;;;-5.12
69785;BMP280;14177;51.520;6.764;2024-01-10T05:44:43;102731.72;;;-5.08
69785;BMP280;14177;51.520;6.764;2024-01-10T05:47:10;102725.81;;;-5.08
69785;BMP280;14177;51.520;6.764;2024-01-10T05:49:37;102727.56;;;-5.07
69785;BMP280;14177;51.520;6.764;2024-01-10T05:52:04;102729.19;;;-5.08
69785;BMP280;14177;51.520;6.764;2024-01-10T05:54:31;102737.19;;;-5.02
69785;BMP280;14177;51.520;6.764;2024-01-10T05:56:58;102734.66;;;-5.02
69785;BMP280;14177;51.520;6.764;2024-01-10T05:59:27;102737.28;;;-5.00
69785;BMP280;14177;51.520;6.764;2024-01-10T06:01:56;102742.63;;;-4.96
69785;BMP280;14177;51.520;6.764;2024-01-10T06:04:24;102735.91;;;-4.95
69785;BMP280;14177;51.520;6.764;2024-01-10T06:06:51;102731.63;;;-4.96
69785;BMP280;14177;51.520;6.764;2024-01-10T06:09:18;102718.16;;;-4.95
69785;BMP280;14177;51.520;6.764;2024-01-10T06:11:48;102727.22;;;-4.99
69785;BMP280;14177;51.520;6.764;2024-01-10T06:14:16;102724.63;;;-5.00
69785;BMP280;14177;51.520;6.764;2024-01-10T06:16:44;102729.50;;;-5.03
69785;BMP280;14177;51.520;6.764;2024-01-10T06:19:14;102727.75;;;-5.04
69785;BMP280;14177;51.520;6.764;2024-01-10T06:21:41;102728.59;;;-5.04
69785;BMP280;14177;51.520;6.764;2024-01-10T06:24:09;102722.66;;;-5.04
69785;BMP280;14177;51.520;6.764;2024-01-10T06:26:36;102726.00;;;-5.05
69785;BMP280;14177;51.520;6.764;2024-01-10T06:29:03;102736.13;;;-5.05
69785;BMP280;14177;51.520;6.764;2024-01-10T06:31:30;102742.84;;;-5.06
69785;BMP280;14177;51.520;6.764;2024-01-10T06:33:56;102734.38;;;-5.06
69785;BMP280;14177;51.520;6.764;2024-01-10T06:36:24;102727.56;;;-5.07
69785;BMP280;14177;51.520;6.764;2024-01-10T06:38:51;102727.44;;;-5.09
69785;BMP280;14177;51.520;6.764;2024-01-10T06:41:21;102738.41;;;-5.10
69785;BMP280;14177;51.520;6.764;2024-01-10T06:43:52;102730.88;;;-5.08
69785;BMP280;14177;51.520;6.764;2024-01-10T06:46:20;102737.69;;;-5.07
69785;BMP280;14177;51.520;6.764;2024-01-10T06:48:48;102743.63;;;-5.07
69785;BMP280;14177;51.520;6.764;2024-01-10T06:51:16;102738.56;;;-5.07
69785;BMP280;14177;51.520;6.764;2024-01-10T06:53:43;102739.25;;;-5.09
69785;BMP280;14177;51.520;6.764;2024-01-10T06:56:10;102747.56;;;-5.12
69785;BMP280;14177;51.520;6.764;2024-01-10T06:58:38;102738.28;;;-5.11
69785;BMP280;14177;51.520;6.764;2024-01-10T07:01:12;102736.66;;;-5.11
69785;BMP280;14177;51.520;6.764;2024-01-10T07:03:41;102737.50;;;-5.10
69785;BMP280;14177;51.520;6.764;2024-01-10T07:06:08;102733.41;;;-5.08
69785;BMP280;14177;51.520;6.764;2024-01-10T07:08:35;102735.75;;;-5.11
69785;BMP280;14177;51.520;6.764;2024-01-10T07:11:02;102734.69;;;-5.15
69785;BMP280;14177;51.520;6.764;2024-01-10T07:13:29;102734.69;;;-5.15
69785;BMP280;14177;51.520;6.764;2024-01-10T07:15:58;102729.44;;;-5.18
69785;BMP280;14177;51.520;6.764;2024-01-10T07:18:29;102731.84;;;-5.19
69785;BMP280;14177;51.520;6.764;2024-01-10T07:20:56;102733.34;;;-5.23
69785;BMP280;14177;51.520;6.764;2024-01-10T07:23:23;102734.31;;;-5.21
69785;BMP280;14177;51.520;6.764;2024-01-10T07:25:51;102739.19;;;-5.24
69785;BMP280;14177;51.520;6.764;2024-01-10T07:28:19;102734.00;;;-5.25
69785;BMP280;14177;51.520;6.764;2024-01-10T07:30:47;102735.69;;;-5.26
69785;BMP280;14177;51.520;6.764;2024-01-10T07:33:14;102730.81;;;-5.23
69785;BMP280;14177;51.520;6.764;2024-01-10T07:35:42;102729.84;;;-5.25
69785;BMP280;14177;51.520;6.764;2024-01-10T07:38:09;102734.13;;;-5.24
69785;BMP280;14177;51.520;6.764;2024-01-10T07:40:36;102728.28;;;-5.23
69785;BMP280;14177;51.520;6.764;2024-01-10T07:43:04;102733.22;;;-5.24
69785;BMP280;14177;51.520;6.764;2024-01-10T07:45:31;102738.41;;;-5.23
69785;BMP280;14177;51.520;6.764;2024-01-10T07:47:59;102735.75;;;-5.24
69785;BMP280;14177;51.520;6.764;2024-01-10T07:50:27;102734.13;;;-5.24
69785;BMP280;14177;51.520;6.764;2024-01-10T07:52:55;102738.22;;;-5.26
69785;BMP280;14177;51.520;6.764;2024-01-10T07:55:22;102734.00;;;-5.25
69785;BMP280;14177;51.520;6.764;2024-01-10T07:57:49;102740.94;;;-5.23
69785;BMP280;14177;51.520;6.764;2024-01-10T08:00:17;102746.03;;;-5.23
69785;BMP280;14177;51.520;6.764;2024-01-10T08:02:47;102736.06;;;-5.20
69785;BMP280;14177;51.520;6.764;2024-01-10T08:05:15;102746.22;;;-5.20
69785;BMP280;14177;51.520;6.764;2024-01-10T08:07:43;102742.91;;;-5.19
69785;BMP280;14177;51.520;6.764;2024-01-10T08:10:10;102734.50;;;-5.18
69785;BMP280;14177;51.520;6.764;2024-01-10T08:12:37;102737.03;;;-5.18
69785;BMP280;14177;51.520;6.764;2024-01-10T08:15:11;102732.84;;;-5.17
69785;BMP280;14177;51.520;6.764;2024-01-10T08:17:38;102732.94;;;-5.16
69785;BMP280;14177;51.520;6.764;2024-01-10T08:20:07;102736.44;;;-5.14
69785;BMP280;14177;51.520;6.764;2024-01-10T08:22:35;102733.22;;;-5.11
69785;BMP280;14177;51.520;6.764;2024-01-10T08:25:03;102731.56;;;-5.11
69785;BMP280;14177;51.520;6.764;2024-01-10T08:27:30;102737.69;;;-5.07
69785;BMP280;14177;51.520;6.764;2024-01-10T08:29:57;102739.72;;;-5.02
69785;BMP280;14177;51.520;6.764;2024-01-10T08:32:24;102749.25;;;-4.98
69785;BMP280;14177;51.520;6.764;2024-01-10T08:34:51;102743.72;;;-4.92
69785;BMP280;14177;51.520;6.764;2024-01-10T08:37:18;102738.91;;;-4.88
69785;BMP280;14177;51.520;6.764;2024-01-10T08:39:45;102745.13;;;-4.83
69785;BMP280;14177;51.520;6.764;2024-01-10T08:42:12;102741.22;;;-4.78
69785;BMP280;14177;51.520;6.764;2024-01-10T08:44:39;102739.06;;;-4.72
69785;BMP280;14177;51.520;6.764;2024-01-10T08:47:06;102729.88;;;-4.70
69785;BMP280;14177;51.520;6.764;2024-01-10T08:49:34;102738.66;;;-4.65
69785;BMP280;14177;51.520;6.764;2024-01-10T08:52:04;102742.16;;;-4.63
69785;BMP280;14177;51.520;6.764;2024-01-10T08:54:31;102736.47;;;-4.59
69785;BMP280;14177;51.520;6.764;2024-01-10T08:56:57;102738.50;;;-4.54
69785;BMP280;14177;51.520;6.764;2024-01-10T08:59:26;102740.53;;;-4.48
69785;BMP280;14177;51.520;6.764;2024-01-10T09:01:55;102745.00;;;-4.44
69785;BMP280;14177;51.520;6.764;2024-01-10T09:04:22;102754.56;;;-4.40
69785;BMP280;14177;51.520;6.764;2024-01-10T09:06:49;102753.13;;;-4.35
69785;BMP280;14177;51.520;6.764;2024-01-10T09:09:16;102751.75;;;-4.30
69785;BMP280;14177;51.520;6.764;2024-01-10T09:11:47;102756.34;;;-4.25
69785;BMP280;14177;51.520;6.764;2024-01-10T09:14:15;102759.13;;;-4.20
69785;BMP280;14177;51.520;6.764;2024-01-10T09:16:42;102757.75;;;-4.15
69785;BMP280;14177;51.520;6.764;2024-01-10T09:19:09;102765.72;;;-4.09
69785;BMP280;14177;51.520;6.764;2024-01-10T09:21:39;102761.88;;;-4.03
69785;BMP280;14177;51.520;6.764;2024-01-10T09:24:07;102756.34;;;-3.96
69785;BMP280;14177;51.520;6.764;2024-01-10T09:26:55;102767.63;;;-3.33
69785;BMP280;14177;51.520;6.764;2024-01-10T09:29:23;102757.94;;;-1.98
69785;BMP280;14177;51.520;6.764;2024-01-10T09:31:50;102759.34;;;-0.64
69785;BMP280;14177;51.520;6.764;2024-01-10T09:34:17;102749.84;;;0.30
69785;BMP280;14177;51.520;6.764;2024-01-10T09:36:45;102737.03;;;1.15
69785;BMP280;14177;51.520;6.764;2024-01-10T09:39:12;102732.56;;;1.78
69785;BMP280;14177;51.520;6.764;2024-01-10T09:41:48;102739.63;;;2.35
69785;BMP280;14177;51.520;6.764;2024-01-10T09:44:15;102730.22;;;2.61
69785;BMP280;14177;51.520;6.764;2024-01-10T09:46:51;102732.31;;;3.01
69785;BMP280;14177;51.520;6.764;2024-01-10T09:49:19;102736.34;;;3.49
69785;BMP280;14177;51.520;6.764;2024-01-10T09:51:53;102729.69;;;3.87
69785;BMP280;14177;51.520;6.764;2024-01-10T09:54:26;102737.56;;;3.93
69785;BMP280;14177;51.520;6.764;2024-01-10T09:56:57;102737.31;;;4.15
69785;BMP280;14177;51.520;6.764;2024-01-10T09:59:24;102741.28;;;4.38
69785;BMP280;14177;51.520;6.764;2024-01-10T10:01:56;102733.94;;;4.52
69785;BMP280;14177;51.520;6.764;2024-01-10T10:04:27;102748.25;;;4.42
69785;BMP280;14177;51.520;6.764;2024-01-10T10:07:03;102736.72;;;4.27
69785;BMP280;14177;51.520;6.764;2024-01-10T10:09:31;102738.44;;;3.04
69785;BMP280;14177;51.520;6.764;2024-01-10T10:11:58;102734.25;;;2.02
69785;BMP280;14177;51.520;6.764;2024-01-10T10:14:28;102730.44;;;1.21
69785;BMP280;14177;51.520;6.764;2024-01-10T10:17:06;102737.13;;;0.52
69785;BMP280;14177;51.520;6.764;2024-01-10T10:19:39;102745.41;;;0.67
69785;BMP280;14177;51.520;6.764;2024-01-10T10:22:08;102732.53;;;1.31
69785;BMP280;14177;51.520;6.764;2024-01-10T10:24:39;102733.78;;;2.14
69785;BMP280;14177;51.520;6.764;2024-01-10T10:27:09;102739.44;;;2.55
69785;BMP280;14177;51.520;6.764;2024-01-10T10:29:36;102725.97;;;2.88
69785;BMP280;14177;51.520;6.764;2024-01-10T10:32:05;102726.53;;;3.36
69785;BMP280;14177;51.520;6.764;2024-01-10T10:34:33;102720.72;;;3.73
69785;BMP280;14177;51.520;6.764;2024-01-10T10:37:01;102722.63;;;4.13
69785;BMP280;14177;51.520;6.764;2024-01-10T10:39:29;102721.81;;;4.48
69785;BMP280;14177;51.520;6.764;2024-01-10T10:41:56;102721.34;;;4.64
69785;BMP280;14177;51.520;6.764;2024-01-10T10:44:25;102713.59;;;5.00
69785;BMP280;14177;51.520;6.764;2024-01-10T10:46:53;102710.59;;;5.21
69785;BMP280;14177;51.520;6.764;2024-01-10T10:49:47;102713.88;;;5.14
69785;BMP280;14177;51.520;6.764;2024-01-10T10:52:18;102717.28;;;5.13
69785;BMP280;14177;51.520;6.764;2024-01-10T10:54:47;102710.72;;;5.25
69785;BMP280;14177;51.520;6.764;2024-01-10T10:57:17;102705.16;;;5.49
69785;BMP280;14177;51.520;6.764;2024-01-10T10:59:49;102709.28;;;5.82
69785;BMP280;14177;51.520;6.764;2024-01-10T11:02:21;102707.38;;;5.74
69785;BMP280;14177;51.520;6.764;2024-01-10T11:04:55;102707.53;;;5.81
69785;BMP280;14177;51.520;6.764;2024-01-10T11:07:22;102709.63;;;6.01
69785;BMP280;14177;51.520;6.764;2024-01-10T11:09:51;102702.16;;;6.16
69785;BMP280;14177;51.520;6.764;2024-01-10T11:22:00;102691.22;;;6.86
69785;BMP280;14177;51.520;6.764;2024-01-10T11:24:31;102693.31;;;7.15
69785;BMP280;14177;51.520;6.764;2024-01-10T11:27:13;102688.47;;;7.42
69785;BMP280;14177;51.520;6.764;2024-01-10T11:29:41;102690.16;;;7.40
69785;BMP280;14177;51.520;6.764;2024-01-10T11:32:16;102695.38;;;7.43
69785;BMP280;14177;51.520;6.764;2024-01-10T11:35:00;102683.44;;;7.54
69785;BMP280;14177;51.520;6.764;2024-01-10T11:37:43;102683.44;;;7.52
69785;BMP280;14177;51.520;6.764;2024-01-10T11:40:12;102670.63;;;7.66
69785;BMP280;14177;51.520;6.764;2024-01-10T11:42:46;102668.03;;;7.63
69785;BMP280;14177;51.520;6.764;2024-01-10T11:48:00;102670.75;;;7.75
69785;BMP280;14177;51.520;6.764;2024-01-10T11:50:28;102661.41;;;7.92
69785;BMP280;14177;51.520;6.764;2024-01-10T11:52:58;102651.19;;;8.05
69785;BMP280;14177;51.520;6.764;2024-01-10T11:55:50;102655.38;;;7.93
69785;BMP280;14177;51.520;6.764;2024-01-10T11:58:23;102652.00;;;8.00
69785;BMP280;14177;51.520;6.764;2024-01-10T12:00:51;102652.78;;;7.91
69785;BMP280;14177;51.520;6.764;2024-01-10T12:03:19;102657.13;;;7.94
69785;BMP280;14177;51.520;6.764;2024-01-10T12:05:47;102657.75;;;7.69
69785;BMP280;14177;51.520;6.764;2024-01-10T12:08:14;102658.84;;;7.92
69785;BMP280;14177;51.520;6.764;2024-01-10T12:10:48;102655.41;;;7.97
69785;BMP280;14177;51.520;6.764;2024-01-10T12:13:15;102654.75;;;8.18
69785;BMP280;14177;51.520;6.764;2024-01-10T12:15:50;102659.16;;;8.26
69785;BMP280;14177;51.520;6.764;2024-01-10T12:18:28;102649.88;;;8.56
69785;BMP280;14177;51.520;6.764;2024-01-10T12:21:06;102651.00;;;9.02
69785;BMP280;14177;51.520;6.764;2024-01-10T12:23:40;102653.72;;;9.36
69785;BMP280;14177;51.520;6.764;2024-01-10T12:26:15;102652.97;;;9.88
69785;BMP280;14177;51.520;6.764;2024-01-10T12:29:00;102650.38;;;10.24
69785;BMP280;14177;51.520;6.764;2024-01-10T12:31:50;102647.78;;;10.30
69785;BMP280;14177;51.520;6.764;2024-01-10T12:34:26;102651.25;;;10.09
69785;BMP280;14177;51.520;6.764;2024-01-10T12:37:07;102654.75;;;10.04
69785;BMP280;14177;51.520;6.764;2024-01-10T12:39:40;102650.38;;;10.33
69785;BMP280;14177;51.520;6.764;2024-01-10T12:42:12;102652.09;;;10.61
69785;BMP280;14177;51.520;6.764;2024-01-10T12:44:45;102643.38;;;10.77
69785;BMP280;14177;51.520;6.764;2024-01-10T12:47:24;102639.84;;;10.94
69785;BMP280;14177;51.520;6.764;2024-01-10T12:49:56;102630.28;;;11.00
69785;BMP280;14177;51.520;6.764;2024-01-10T12:52:26;102638.94;;;11.08
69785;BMP280;14177;51.520;6.764;2024-01-10T12:54:58;102647.59;;;11.12
69785;BMP280;14177;51.520;6.764;2024-01-10T12:57:31;102650.22;;;11.01
69785;BMP280;14177;51.520;6.764;2024-01-10T12:59:58;102639.88;;;10.89
69785;BMP280;14177;51.520;6.764;2024-01-10T13:02:25;102642.59;;;10.27
69785;BMP280;14177;51.520;6.764;2024-01-10T13:04:52;102655.56;;;9.94
69785;BMP280;14177;51.520;6.764;2024-01-10T13:07:20;102643.41;;;9.64
69785;BMP280;14177;51.520;6.764;2024-01-10T13:09:47;102640.81;;;9.69
69785;BMP280;14177;51.520;6.764;2024-01-10T13:12:14;102645.13;;;9.64
69785;BMP280;14177;51.520;6.764;2024-01-10T13:14:41;102642.56;;;9.77
69785;BMP280;14177;51.520;6.764;2024-01-10T13:17:08;102640.81;;;9.91
69785;BMP280;14177;51.520;6.764;2024-01-10T13:19:35;102642.56;;;9.94
69785;BMP280;14177;51.520;6.764;2024-01-10T13:22:04;102642.56;;;9.86
69785;BMP280;14177;51.520;6.764;2024-01-10T13:24:34;102652.09;;;9.89
69785;BMP280;14177;51.520;6.764;2024-01-10T13:27:01;102645.16;;;9.94
69785;BMP280;14177;51.520;6.764;2024-01-10T13:29:28;102641.69;;;9.77
69785;BMP280;14177;51.520;6.764;2024-01-10T13:31:55;102643.38;;;9.42
69785;BMP280;14177;51.520;6.764;2024-01-10T13:34:22;102645.69;;;8.81
69785;BMP280;14177;51.520;6.764;2024-01-10T13:36:49;102652.78;;;7.90
69785;BMP280;14177;51.520;6.764;2024-01-10T13:39:16;102656.53;;;6.70
69785;BMP280;14177;51.520;6.764;2024-01-10T13:41:43;102668.00;;;5.82
69785;BMP280;14177;51.520;6.764;2024-01-10T13:44:10;102670.97;;;5.14
69785;BMP280;14177;51.520;6.764;2024-01-10T13:46:38;102674.03;;;4.59
69785;BMP280;14177;51.520;6.764;2024-01-10T13:49:05;102674.59;;;4.12
69785;BMP280;14177;51.520;6.764;2024-01-10T13:51:32;102670.88;;;3.68
69785;BMP280;14177;51.520;6.764;2024-01-10T13:53:59;102675.91;;;3.33
69785;BMP280;14177;51.520;6.764;2024-01-10T13:56:26;102670.03;;;3.08
69785;BMP280;14177;51.520;6.764;2024-01-10T13:58:55;102672.00;;;2.87
69785;BMP280;14177;51.520;6.764;2024-01-10T14:01:22;102666.41;;;2.72
69785;BMP280;14177;51.520;6.764;2024-01-10T14:03:49;102678.78;;;2.57
69785;BMP280;14177;51.520;6.764;2024-01-10T14:06:16;102674.88;;;2.41
69785;BMP280;14177;51.520;6.764;2024-01-10T14:08:43;102685.50;;;2.27
69785;BMP280;14177;51.520;6.764;2024-01-10T14:11:12;102685.97;;;2.16
69785;BMP280;14177;51.520;6.764;2024-01-10T14:13:39;102682.97;;;2.02
69785;BMP280;14177;51.520;6.764;2024-01-10T14:16:06;102687.81;;;1.93
69785;BMP280;14177;51.520;6.764;2024-01-10T14:18:33;102679.78;;;1.84